createdAt,value
2022-08-30T00:01:05.850Z,22.40
2022-08-30T00:03:42.853Z,22.30
2022-08-30T00:06:10.400Z,22.30
2022-08-30T00:08:38.309Z,22.30
2022-08-30T00:11:09.964Z,22.30
2022-08-30T00:13:40.696Z,22.20
2022-08-30T00:16:07.716Z,22.20
2022-08-30T00:18:36.205Z,22.20
2022-08-30T00:21:04.680Z,22.20
2022-08-30T00:23:32.441Z,22.20
2022-08-30T00:26:00.308Z,22.10
2022-08-30T00:28:27.304Z,22.10
2022-08-30T00:30:54.414Z,22.10
2022-08-30T00:33:22.150Z,22.10
2022-08-30T00:35:49.387Z,22.10
2022-08-30T00:38:16.547Z,22.10
2022-08-30T00:40:45.019Z,22.10
2022-08-30T00:43:23.162Z,22.10
2022-08-30T00:45:52.110Z,22.10
2022-08-30T00:48:19.343Z,22.10
2022-08-30T00:50:56.934Z,22.10
2022-08-30T00:53:29.100Z,22.10
2022-08-30T00:55:57.529Z,22.00
2022-08-30T00:58:32.338Z,22.00
2022-08-30T01:01:01.334Z,22.00
2022-08-30T01:03:29.910Z,22.00
2022-08-30T01:05:57.684Z,21.90
2022-08-30T01:08:24.851Z,21.90
2022-08-30T01:10:54.587Z,21.90
2022-08-30T01:13:23.101Z,21.90
2022-08-30T01:15:50.927Z,21.90
2022-08-30T01:18:20.854Z,21.90
2022-08-30T01:21:01.406Z,21.80
2022-08-30T01:23:29.573Z,21.80
2022-08-30T01:25:57.599Z,21.80
2022-08-30T01:28:27.162Z,21.70
2022-08-30T01:30:54.279Z,21.70
2022-08-30T01:33:21.824Z,21.70
2022-08-30T01:35:59.535Z,21.70
2022-08-30T01:38:34.506Z,21.70
2022-08-30T01:41:09.846Z,21.70
2022-08-30T01:43:37.036Z,21.60
2022-08-30T01:46:04.677Z,21.60
2022-08-30T01:48:32.106Z,21.60
2022-08-30T01:50:59.431Z,21.60
2022-08-30T01:53:26.399Z,21.60
2022-08-30T01:55:53.283Z,21.60
2022-08-30T01:58:20.710Z,21.50
2022-08-30T02:00:47.635Z,21.50
2022-08-30T02:03:14.531Z,21.50
2022-08-30T02:05:41.919Z,21.50
2022-08-30T02:08:08.774Z,21.50
2022-08-30T02:10:35.710Z,21.40
2022-08-30T02:13:03.102Z,21.40
2022-08-30T02:15:29.960Z,21.40
2022-08-30T02:18:01.306Z,21.40
2022-08-30T02:20:28.548Z,21.40
2022-08-30T02:22:57.585Z,21.40
2022-08-30T02:25:26.522Z,21.40
2022-08-30T02:27:53.341Z,21.40
2022-08-30T02:30:20.436Z,21.40
2022-08-30T02:32:47.337Z,21.40
2022-08-30T02:35:14.217Z,21.40
2022-08-30T02:37:41.066Z,21.40
2022-08-30T02:40:08.629Z,21.40
2022-08-30T02:42:35.498Z,21.40
2022-08-30T02:45:03.352Z,21.30
2022-08-30T02:47:30.556Z,21.30
2022-08-30T02:49:57.359Z,21.30
2022-08-30T02:52:27.799Z,21.40
2022-08-30T02:54:55.346Z,21.30
2022-08-30T02:57:22.886Z,21.30
2022-08-30T02:59:50.208Z,21.30
2022-08-30T03:02:17.913Z,21.30
2022-08-30T03:04:45.084Z,21.30
2022-08-30T03:07:13.009Z,21.40
2022-08-30T03:09:40.631Z,21.40
2022-08-30T03:12:08.585Z,21.40
2022-08-30T03:14:37.403Z,21.30
2022-08-30T03:17:12.758Z,21.30
2022-08-30T03:19:43.528Z,21.30
2022-08-30T03:22:10.895Z,21.30
2022-08-30T03:24:38.065Z,21.20
2022-08-30T03:27:05.068Z,21.20
2022-08-30T03:29:31.928Z,21.20
2022-08-30T03:31:59.000Z,21.20
2022-08-30T03:34:27.547Z,21.20
2022-08-30T03:36:55.803Z,21.10
2022-08-30T03:39:24.708Z,21.10
2022-08-30T03:41:52.073Z,21.10
2022-08-30T03:44:19.452Z,21.10
2022-08-30T03:46:46.704Z,21.10
2022-08-30T03:49:13.913Z,21.10
2022-08-30T03:51:40.816Z,21.10
2022-08-30T03:54:07.631Z,21.00
2022-08-30T03:56:34.492Z,21.00
2022-08-30T03:59:01.444Z,21.00
2022-08-30T04:01:28.353Z,21.00
2022-08-30T04:03:56.651Z,21.00
2022-08-30T04:06:24.138Z,21.00
2022-08-30T04:08:51.039Z,21.00
2022-08-30T04:11:17.984Z,21.00
2022-08-30T04:13:44.904Z,21.00
2022-08-30T04:16:11.910Z,21.00
2022-08-30T04:18:38.856Z,21.00
2022-08-30T04:21:06.379Z,21.00
2022-08-30T04:23:33.367Z,21.00
2022-08-30T04:26:00.227Z,21.00
2022-08-30T04:28:27.886Z,21.00
2022-08-30T04:30:54.717Z,21.00
2022-08-30T04:33:21.857Z,21.00
2022-08-30T04:35:50.003Z,21.00
2022-08-30T04:38:17.512Z,21.00
2022-08-30T04:40:47.357Z,21.00
2022-08-30T04:43:14.605Z,21.10
2022-08-30T04:45:41.879Z,21.10
2022-08-30T04:48:08.991Z,21.10
2022-08-30T04:50:36.237Z,21.10
2022-08-30T04:53:03.198Z,21.20
2022-08-30T04:55:30.116Z,21.20
2022-08-30T04:57:57.002Z,21.10
2022-08-30T05:00:23.953Z,21.10
2022-08-30T05:02:50.866Z,21.20
2022-08-30T05:05:36.570Z,21.20
2022-08-30T05:08:04.128Z,21.10
2022-08-30T05:10:31.081Z,21.10
2022-08-30T05:12:58.103Z,21.10
2022-08-30T05:15:24.958Z,21.00
2022-08-30T05:17:51.914Z,20.90
2022-08-30T05:20:18.862Z,20.70
2022-08-30T05:22:53.248Z,20.70
2022-08-30T05:25:28.822Z,20.60
2022-08-30T05:27:56.222Z,20.60
2022-08-30T05:30:24.534Z,20.60
2022-08-30T05:32:51.442Z,20.60
2022-08-30T05:35:24.872Z,20.60
2022-08-30T05:37:53.057Z,20.60
2022-08-30T05:40:20.378Z,20.60
2022-08-30T05:42:48.045Z,20.70
2022-08-30T05:45:15.865Z,20.80
2022-08-30T05:47:42.917Z,20.80
2022-08-30T05:50:10.671Z,20.70
2022-08-30T05:52:40.196Z,20.70
2022-08-30T05:55:08.450Z,20.70
2022-08-30T05:57:37.586Z,20.60
2022-08-30T06:00:10.261Z,20.60
2022-08-30T06:02:37.217Z,20.50
2022-08-30T06:05:05.249Z,20.50
2022-08-30T06:07:32.786Z,20.50
2022-08-30T06:09:59.693Z,20.50
2022-08-30T06:12:26.894Z,20.60
2022-08-30T06:14:53.837Z,20.60
2022-08-30T06:17:20.881Z,20.70
2022-08-30T06:19:47.923Z,20.70
2022-08-30T06:22:14.812Z,20.80
2022-08-30T06:24:56.873Z,20.70
2022-08-30T06:27:24.545Z,20.80
2022-08-30T06:29:52.568Z,21.00
2022-08-30T06:32:19.547Z,21.00
2022-08-30T06:34:46.400Z,21.10
2022-08-30T06:37:24.592Z,21.20
2022-08-30T06:39:58.620Z,21.30
2022-08-30T06:42:31.811Z,21.30
2022-08-30T06:45:10.772Z,21.40
2022-08-30T06:47:39.003Z,21.40
2022-08-30T06:50:06.512Z,21.50
2022-08-30T06:52:33.395Z,21.50
2022-08-30T06:55:01.703Z,21.50
2022-08-30T06:57:28.574Z,21.50
2022-08-30T06:59:57.376Z,21.50
2022-08-30T07:02:25.477Z,21.60
2022-08-30T07:04:52.467Z,21.60
2022-08-30T07:07:19.763Z,21.70
2022-08-30T07:09:46.667Z,21.70
2022-08-30T07:12:14.160Z,21.70
2022-08-30T07:14:41.527Z,21.70
2022-08-30T07:17:32.509Z,21.70
2022-08-30T07:20:01.773Z,21.60
2022-08-30T07:22:29.035Z,21.70
2022-08-30T07:24:55.934Z,21.60
2022-08-30T07:27:22.802Z,21.60
2022-08-30T07:29:50.359Z,21.60
2022-08-30T07:32:18.487Z,21.60
2022-08-30T07:34:45.335Z,21.70
2022-08-30T07:37:12.185Z,21.70
2022-08-30T07:39:47.768Z,21.60
2022-08-30T07:42:15.449Z,21.60
2022-08-30T07:44:42.353Z,21.60
2022-08-30T07:47:09.416Z,21.60
2022-08-30T07:49:37.433Z,21.60
2022-08-30T07:52:04.857Z,21.60
2022-08-30T07:54:31.692Z,21.70
2022-08-30T07:56:58.579Z,21.80
2022-08-30T07:59:25.527Z,21.70
2022-08-30T08:01:52.430Z,21.70
2022-08-30T08:04:19.618Z,21.80
2022-08-30T08:06:46.568Z,21.80
2022-08-30T08:09:13.870Z,21.80
2022-08-30T08:11:41.497Z,21.90
2022-08-30T08:14:08.783Z,21.90
2022-08-30T08:16:38.362Z,21.90
2022-08-30T08:19:09.088Z,22.00
2022-08-30T08:21:37.386Z,22.10
2022-08-30T08:24:04.665Z,22.20
2022-08-30T08:26:33.927Z,22.20
2022-08-30T08:29:00.754Z,22.20
2022-08-30T08:31:33.369Z,22.20
2022-08-30T08:34:05.888Z,22.20
2022-08-30T08:36:34.722Z,22.20
2022-08-30T08:39:02.855Z,22.20
2022-08-30T08:41:55.388Z,22.30
2022-08-30T08:44:40.802Z,22.40
2022-08-30T08:47:35.513Z,22.40
2022-08-30T08:50:06.327Z,22.40
2022-08-30T08:53:01.229Z,22.40
2022-08-30T08:55:29.895Z,22.50
2022-08-30T08:57:57.602Z,22.50
2022-08-30T09:00:25.473Z,22.60
2022-08-30T09:03:03.053Z,22.70
2022-08-30T09:05:35.421Z,22.70
2022-08-30T09:08:17.702Z,22.70
2022-08-30T09:11:02.629Z,22.80
2022-08-30T09:13:29.683Z,22.90
2022-08-30T09:16:00.079Z,22.90
2022-08-30T09:18:52.569Z,23.00
2022-08-30T09:21:25.862Z,22.90
2022-08-30T09:23:59.592Z,22.90
2022-08-30T09:26:36.990Z,22.90
2022-08-30T09:29:05.807Z,22.90
2022-08-30T09:31:47.063Z,22.90
2022-08-30T09:34:19.210Z,23.00
2022-08-30T09:36:49.736Z,22.90
2022-08-30T09:39:19.966Z,22.90
2022-08-30T09:41:50.647Z,23.00
2022-08-30T09:44:19.078Z,23.00
2022-08-30T09:46:56.051Z,23.10
2022-08-30T09:49:30.636Z,23.10
2022-08-30T09:52:31.382Z,23.10
2022-08-30T09:55:10.596Z,23.10
2022-08-30T09:57:56.671Z,23.10
2022-08-30T10:00:29.047Z,23.10
2022-08-30T10:03:35.812Z,23.20
2022-08-30T10:06:25.166Z,23.20
2022-08-30T10:09:11.001Z,23.30
2022-08-30T10:11:52.773Z,23.30
2022-08-30T10:14:43.707Z,23.20
2022-08-30T10:17:35.028Z,23.20
2022-08-30T10:20:18.952Z,23.20
2022-08-30T10:22:48.358Z,23.20
2022-08-30T10:25:32.803Z,23.20
2022-08-30T10:28:25.005Z,23.30
2022-08-30T10:31:06.740Z,23.30
2022-08-30T10:33:39.050Z,23.40
2022-08-30T10:36:10.762Z,23.50
2022-08-30T10:38:40.852Z,23.50
2022-08-30T10:41:33.727Z,23.50
2022-08-30T10:44:27.909Z,23.60
2022-08-30T10:47:01.531Z,23.50
2022-08-30T10:49:32.991Z,23.40
2022-08-30T10:52:23.520Z,23.40
2022-08-30T10:55:19.085Z,23.30
2022-08-30T10:57:46.594Z,23.30
2022-08-30T11:00:26.609Z,23.20
2022-08-30T11:03:21.322Z,23.10
2022-08-30T11:06:16.229Z,23.10
2022-08-30T11:09:03.894Z,23.20
2022-08-30T11:11:57.446Z,23.20
2022-08-30T11:14:25.404Z,23.20
2022-08-30T11:16:54.879Z,23.30
2022-08-30T11:19:36.922Z,23.40
2022-08-30T11:22:27.945Z,23.40
2022-08-30T11:25:15.878Z,23.40
2022-08-30T11:27:56.482Z,23.50
2022-08-30T11:30:27.373Z,23.50
2022-08-30T11:33:13.057Z,23.40
2022-08-30T11:35:48.382Z,23.40
2022-08-30T11:38:28.491Z,23.40
2022-08-30T11:40:55.283Z,23.50
2022-08-30T11:43:42.293Z,23.40
2022-08-30T11:46:27.227Z,23.50
2022-08-30T11:49:02.270Z,23.50
2022-08-30T11:51:44.286Z,23.40
2022-08-30T11:54:32.026Z,23.30
2022-08-30T11:57:20.568Z,23.40
2022-08-30T11:59:53.842Z,23.30
2022-08-30T12:02:45.796Z,23.40
2022-08-30T12:05:40.929Z,23.50
2022-08-30T12:08:09.737Z,23.40
2022-08-30T12:10:42.596Z,23.50
2022-08-30T12:13:30.280Z,23.60
2022-08-30T12:16:16.337Z,23.60
2022-08-30T12:19:00.938Z,23.70
2022-08-30T12:21:33.432Z,23.70
2022-08-30T12:24:25.048Z,23.70
2022-08-30T12:26:53.150Z,23.70
2022-08-30T12:29:31.162Z,23.70
2022-08-30T12:32:15.801Z,23.70
2022-08-30T12:34:43.478Z,23.70
2022-08-30T12:37:19.962Z,23.80
2022-08-30T12:39:53.566Z,23.80
2022-08-30T12:42:26.980Z,23.80
2022-08-30T12:44:57.983Z,23.80
2022-08-30T12:47:45.517Z,23.80
2022-08-30T12:50:19.965Z,23.70
2022-08-30T12:53:09.316Z,23.80
2022-08-30T12:55:59.338Z,23.80
2022-08-30T12:58:47.454Z,23.80
2022-08-30T13:01:33.751Z,23.90
2022-08-30T13:04:13.556Z,23.90
2022-08-30T13:06:57.714Z,24.00
2022-08-30T13:09:27.905Z,24.00
2022-08-30T13:12:01.124Z,24.00
2022-08-30T13:14:37.152Z,24.00
2022-08-30T13:17:09.728Z,24.00
2022-08-30T13:19:42.545Z,24.00
2022-08-30T13:22:37.852Z,23.90
2022-08-30T13:25:06.093Z,23.90
2022-08-30T13:27:37.024Z,23.80
2022-08-30T13:30:14.514Z,23.90
2022-08-30T13:32:42.297Z,24.00
2022-08-30T13:35:10.837Z,24.00
2022-08-30T13:37:49.787Z,23.90
2022-08-30T13:40:19.645Z,23.80
2022-08-30T13:42:47.343Z,23.80
2022-08-30T13:48:03.221Z,23.60
2022-08-30T13:50:31.053Z,23.50
2022-08-30T13:52:58.441Z,23.60
2022-08-30T13:55:25.688Z,23.60
2022-08-30T13:57:54.514Z,23.60
2022-08-30T14:00:22.525Z,23.50
2022-08-30T14:02:54.646Z,23.50
2022-08-30T14:05:47.464Z,23.60
2022-08-30T14:11:01.535Z,23.50
2022-08-30T14:13:29.680Z,23.50
2022-08-30T14:18:46.716Z,23.60
2022-08-30T14:21:13.641Z,23.50
2022-08-30T14:23:40.472Z,23.50
2022-08-30T14:26:18.010Z,23.50
2022-08-30T14:28:45.299Z,23.50
2022-08-30T14:31:13.039Z,23.50
2022-08-30T14:33:40.381Z,23.50
2022-08-30T14:36:12.440Z,23.50
2022-08-30T14:38:42.715Z,23.50
2022-08-30T14:41:10.858Z,23.50
2022-08-30T14:43:40.659Z,23.60
2022-08-30T14:46:08.889Z,23.60
2022-08-30T14:48:38.438Z,23.60
2022-08-30T14:51:17.101Z,23.70
2022-08-30T14:53:44.785Z,23.70
2022-08-30T14:56:19.472Z,23.70
2022-08-30T14:58:49.181Z,23.60
2022-08-30T15:01:16.113Z,23.60
2022-08-30T15:03:43.078Z,23.60
2022-08-30T15:06:10.969Z,23.50
2022-08-30T15:08:38.377Z,23.50
2022-08-30T15:11:14.718Z,23.50
2022-08-30T15:13:44.783Z,23.60
2022-08-30T15:16:34.937Z,23.60
2022-08-30T15:19:02.541Z,23.70
2022-08-30T15:21:35.317Z,23.70
2022-08-30T15:24:04.969Z,23.70
2022-08-30T15:26:32.146Z,23.70
2022-08-30T15:28:59.193Z,23.70
2022-08-30T15:31:29.597Z,23.70
2022-08-30T15:33:56.926Z,23.50
2022-08-30T15:36:24.731Z,23.40
2022-08-30T15:38:55.472Z,23.40
2022-08-30T15:41:23.254Z,23.30
2022-08-30T15:43:51.652Z,23.40
2022-08-30T15:46:33.223Z,23.30
2022-08-30T15:49:06.005Z,23.30
2022-08-30T15:51:41.257Z,23.10
2022-08-30T15:54:09.684Z,23.00
2022-08-30T15:56:39.174Z,23.00
2022-08-30T15:59:06.033Z,22.90
2022-08-30T16:01:34.342Z,22.90
2022-08-30T16:04:02.075Z,23.00
2022-08-30T16:06:32.809Z,23.00
2022-08-30T16:09:00.206Z,23.00
2022-08-30T16:11:27.814Z,23.00
2022-08-30T16:13:56.254Z,23.00
2022-08-30T16:16:24.217Z,22.90
2022-08-30T16:18:54.135Z,22.80
2022-08-30T16:21:23.452Z,22.80
2022-08-30T16:23:50.760Z,22.70
2022-08-30T16:26:18.433Z,22.80
2022-08-30T16:28:47.209Z,22.70
2022-08-30T16:31:16.183Z,22.70
2022-08-30T16:33:44.871Z,22.50
2022-08-30T16:36:13.180Z,22.50
2022-08-30T16:38:40.797Z,22.50
2022-08-30T16:41:10.131Z,22.50
2022-08-30T16:43:39.085Z,22.50
2022-08-30T16:46:12.020Z,22.60
2022-08-30T16:48:40.086Z,22.70
2022-08-30T16:51:10.402Z,22.80
2022-08-30T16:53:38.754Z,22.80
2022-08-30T16:56:13.779Z,22.90
2022-08-30T16:58:41.301Z,22.90
2022-08-30T17:01:08.241Z,23.00
2022-08-30T17:03:38.173Z,23.00
2022-08-30T17:06:06.152Z,23.10
2022-08-30T17:08:33.716Z,23.10
2022-08-30T17:11:01.018Z,23.10
2022-08-30T17:13:28.958Z,23.20
2022-08-30T17:15:57.928Z,23.20
2022-08-30T17:18:25.499Z,23.20
2022-08-30T17:20:52.423Z,23.20
2022-08-30T17:23:19.355Z,23.20
2022-08-30T17:25:46.219Z,23.20
2022-08-30T17:28:13.583Z,23.20
2022-08-30T17:30:40.549Z,23.30
2022-08-30T17:37:00.839Z,23.30
2022-08-30T17:39:28.468Z,23.20
2022-08-30T17:44:42.007Z,23.20
2022-08-30T17:47:09.672Z,23.20
2022-08-30T17:49:36.853Z,23.20
2022-08-30T17:52:04.678Z,23.20
2022-08-30T17:54:33.531Z,23.20
2022-08-30T17:57:00.952Z,23.20
2022-08-30T17:59:29.322Z,23.20
2022-08-30T18:01:59.693Z,23.20
2022-08-30T18:04:26.629Z,23.20
2022-08-30T18:06:54.870Z,23.20
2022-08-30T18:09:22.719Z,23.20
2022-08-30T18:11:51.106Z,23.20
2022-08-30T18:14:18.667Z,23.20
2022-08-30T18:16:53.511Z,23.10
2022-08-30T18:19:25.684Z,23.10
2022-08-30T18:21:52.933Z,23.00
2022-08-30T18:24:20.248Z,22.90
2022-08-30T18:26:47.129Z,22.80
2022-08-30T18:29:14.232Z,22.70
2022-08-30T18:31:41.285Z,22.70
2022-08-30T18:34:12.248Z,22.60
2022-08-30T18:36:39.681Z,22.60
2022-08-30T18:39:06.742Z,22.60
2022-08-30T18:41:33.576Z,22.50
2022-08-30T18:44:26.078Z,22.50
2022-08-30T18:46:56.834Z,22.50
2022-08-30T18:49:25.668Z,22.50
2022-08-30T18:51:53.251Z,22.50
2022-08-30T18:54:20.187Z,22.50
2022-08-30T18:56:47.028Z,22.60
2022-08-30T18:59:14.144Z,22.50
2022-08-30T19:01:42.515Z,22.40
2022-08-30T19:04:22.550Z,22.40
2022-08-30T19:06:57.216Z,22.40
2022-08-30T19:09:24.090Z,22.40
2022-08-30T19:11:53.927Z,22.40
2022-08-30T19:14:20.770Z,22.30
2022-08-30T19:16:48.055Z,22.20
2022-08-30T19:19:15.300Z,22.20
2022-08-30T19:21:42.552Z,22.20
2022-08-30T19:24:11.298Z,22.20
2022-08-30T19:26:38.513Z,22.10
2022-08-30T19:29:06.604Z,22.10
2022-08-30T19:31:33.888Z,22.10
2022-08-30T19:34:00.804Z,22.20
2022-08-30T19:36:28.911Z,22.20
2022-08-30T19:38:56.045Z,22.10
2022-08-30T19:41:23.175Z,22.10
2022-08-30T19:43:51.782Z,22.10
2022-08-30T19:46:18.690Z,22.00
2022-08-30T19:48:45.575Z,22.00
2022-08-30T19:51:14.674Z,21.90
2022-08-30T19:53:42.870Z,21.90
2022-08-30T19:56:09.766Z,21.90
2022-08-30T19:58:36.797Z,21.90
2022-08-30T20:01:11.628Z,21.90
2022-08-30T20:03:40.150Z,21.90
2022-08-30T20:06:08.917Z,21.90
2022-08-30T20:08:36.567Z,21.90
2022-08-30T20:11:04.434Z,21.80
2022-08-30T20:13:33.669Z,21.80
2022-08-30T20:16:01.331Z,21.80
2022-08-30T20:18:28.921Z,21.70
2022-08-30T20:20:56.614Z,21.70
2022-08-30T20:23:25.488Z,21.60
2022-08-30T20:25:54.578Z,21.60
2022-08-30T20:28:22.372Z,21.60
2022-08-30T20:30:49.518Z,21.60
2022-08-30T20:33:17.195Z,21.70
2022-08-30T20:35:49.025Z,21.70
2022-08-30T20:38:22.147Z,21.70
2022-08-30T20:40:52.084Z,21.70
2022-08-30T20:43:21.055Z,21.70
2022-08-30T20:45:48.644Z,21.70
2022-08-30T20:48:15.857Z,21.70
2022-08-30T20:50:43.155Z,21.70
2022-08-30T20:53:10.635Z,21.60
2022-08-30T20:55:42.589Z,21.60
2022-08-30T20:58:09.707Z,21.60
2022-08-30T21:00:37.493Z,21.60
2022-08-30T21:03:26.504Z,21.60
2022-08-30T21:05:54.738Z,21.60
2022-08-30T21:08:21.706Z,21.50
2022-08-30T21:10:48.682Z,21.50
2022-08-30T21:13:15.789Z,21.50
2022-08-30T21:15:45.976Z,21.50
2022-08-30T21:18:14.263Z,21.50
2022-08-30T21:20:41.379Z,21.50
2022-08-30T21:23:08.298Z,21.60
2022-08-30T21:25:41.875Z,21.60
2022-08-30T21:28:09.165Z,21.70
2022-08-30T21:30:36.908Z,21.70
2022-08-30T21:33:05.413Z,21.80
2022-08-30T21:35:51.001Z,21.80
2022-08-30T21:38:18.073Z,21.80
2022-08-30T21:40:45.059Z,21.80
2022-08-30T21:43:12.763Z,21.80
2022-08-30T21:45:44.804Z,21.70
2022-08-30T21:48:13.045Z,21.70
2022-08-30T21:50:44.839Z,21.60
2022-08-30T21:53:15.666Z,21.60
2022-08-30T21:55:44.263Z,21.60
2022-08-30T21:58:11.412Z,21.70
2022-08-30T22:00:38.254Z,21.70
2022-08-30T22:03:05.138Z,21.70
2022-08-30T22:05:32.070Z,21.60
2022-08-30T22:07:59.629Z,21.60
2022-08-30T22:10:29.977Z,21.70
2022-08-30T22:12:59.287Z,21.70
2022-08-30T22:15:26.931Z,21.60
2022-08-30T22:17:53.840Z,21.60
2022-08-30T22:20:20.786Z,21.60
2022-08-30T22:22:47.593Z,21.50
2022-08-30T22:25:14.417Z,21.50
2022-08-30T22:27:41.254Z,21.50
2022-08-30T22:30:08.577Z,21.50
2022-08-30T22:32:38.214Z,21.60
2022-08-30T22:35:05.813Z,21.60
2022-08-30T22:37:34.126Z,21.60
2022-08-30T22:40:01.037Z,21.60
2022-08-30T22:42:27.895Z,21.60
2022-08-30T22:44:54.774Z,21.60
2022-08-30T22:47:21.678Z,21.70
2022-08-30T22:49:48.496Z,21.70
2022-08-30T22:52:15.371Z,21.70
2022-08-30T22:54:42.215Z,21.70
2022-08-30T22:57:10.696Z,21.70
2022-08-30T22:59:37.497Z,21.70
2022-08-30T23:02:04.573Z,21.70
2022-08-30T23:04:31.555Z,21.60
2022-08-30T23:06:58.416Z,21.60
2022-08-30T23:09:25.223Z,21.60
2022-08-30T23:11:52.174Z,21.70
2022-08-30T23:14:19.016Z,21.70
2022-08-30T23:16:46.962Z,21.70
2022-08-30T23:19:14.486Z,21.70
2022-08-30T23:21:42.459Z,21.60
2022-08-30T23:24:28.086Z,21.60
2022-08-30T23:27:13.463Z,21.50
2022-08-30T23:29:59.918Z,21.50
2022-08-30T23:32:45.407Z,21.40
2022-08-30T23:35:31.833Z,21.50
2022-08-30T23:38:17.999Z,21.50
2022-08-30T23:41:03.534Z,21.40
2022-08-30T23:43:48.751Z,21.40
2022-08-30T23:46:34.759Z,21.40
2022-08-30T23:49:20.204Z,21.40
2022-08-30T23:52:05.891Z,21.40
2022-08-30T23:54:51.384Z,21.40
2022-08-30T23:57:42.731Z,21.40
